createdAt,value
2023-04-07T00:00:16.055Z,30.00
2023-04-07T00:02:44.819Z,23.60
2023-04-07T00:05:13.618Z,23.92
2023-04-07T00:07:52.248Z,21.38
2023-04-07T00:10:24.608Z,21.48
2023-04-07T00:12:53.048Z,21.70
2023-04-07T00:15:21.571Z,24.27
2023-04-07T00:17:49.843Z,21.92
2023-04-07T00:20:18.167Z,18.92
2023-04-07T00:22:46.408Z,25.90
2023-04-07T00:25:14.841Z,21.67
2023-04-07T00:27:43.095Z,19.50
2023-04-07T00:30:11.499Z,20.00
2023-04-07T00:32:39.719Z,21.80
2023-04-07T00:35:08.420Z,21.45
2023-04-07T00:37:36.822Z,22.75
2023-04-07T00:40:06.083Z,21.85
2023-04-07T00:42:35.353Z,24.77
2023-04-07T00:45:03.782Z,20.60
2023-04-07T00:47:32.261Z,21.45
2023-04-07T00:50:00.630Z,20.98
2023-04-07T00:52:30.242Z,24.05
2023-04-07T00:54:59.835Z,21.00
2023-04-07T00:57:28.275Z,22.15
2023-04-07T00:59:57.157Z,23.27
2023-04-07T01:02:34.050Z,22.30
2023-04-07T01:05:37.710Z,21.27
2023-04-07T01:08:13.377Z,23.35
2023-04-07T01:10:49.751Z,23.38
2023-04-07T01:13:48.242Z,20.42
2023-04-07T01:16:53.047Z,19.63
2023-04-07T01:19:39.904Z,23.80
2023-04-07T01:22:18.094Z,21.98
2023-04-07T01:25:28.513Z,21.02
2023-04-07T01:28:35.178Z,23.45
2023-04-07T01:31:07.620Z,21.50
2023-04-07T01:33:37.813Z,25.23
2023-04-07T01:36:08.350Z,19.15
2023-04-07T01:38:37.923Z,20.65
2023-04-07T01:41:08.953Z,26.45
2023-04-07T01:43:40.076Z,27.42
2023-04-07T01:46:09.630Z,21.80
2023-04-07T01:48:39.810Z,21.85
2023-04-07T01:51:11.632Z,24.13
2023-04-07T01:53:40.302Z,22.98
2023-04-07T01:56:08.966Z,25.65
2023-04-07T01:58:38.849Z,23.95
2023-04-07T02:01:10.549Z,21.00
2023-04-07T02:03:45.408Z,24.58
2023-04-07T02:06:24.946Z,23.65
2023-04-07T02:08:57.562Z,18.77
2023-04-07T02:11:27.438Z,28.08
2023-04-07T02:14:02.609Z,22.02
2023-04-07T02:16:35.584Z,20.70
2023-04-07T02:19:04.823Z,24.17
2023-04-07T02:21:34.494Z,21.88
2023-04-07T02:24:06.823Z,22.63
2023-04-07T02:26:36.685Z,23.88
2023-04-07T02:29:05.705Z,21.63
2023-04-07T02:31:33.953Z,18.63
2023-04-07T02:34:02.464Z,22.15
2023-04-07T02:36:31.517Z,23.40
2023-04-07T02:39:00.399Z,21.33
2023-04-07T02:41:28.632Z,22.27
2023-04-07T02:43:57.190Z,20.17
2023-04-07T02:46:26.113Z,22.02
2023-04-07T02:48:54.346Z,20.35
2023-04-07T02:51:22.575Z,18.98
2023-04-07T02:53:50.971Z,22.70
2023-04-07T02:56:19.260Z,28.98
2023-04-07T02:58:47.533Z,25.55
2023-04-07T03:01:15.911Z,27.95
2023-04-07T03:03:45.248Z,23.08
2023-04-07T03:06:17.988Z,25.80
2023-04-07T03:09:00.666Z,26.25
2023-04-07T03:11:29.082Z,24.90
2023-04-07T03:13:59.452Z,21.95
2023-04-07T03:16:29.338Z,24.70
2023-04-07T03:19:16.557Z,23.85
2023-04-07T03:21:48.457Z,26.33
2023-04-07T03:24:17.139Z,25.95
2023-04-07T03:26:47.626Z,24.33
2023-04-07T03:29:24.451Z,22.00
2023-04-07T03:31:53.707Z,21.67
2023-04-07T03:34:25.380Z,26.33
2023-04-07T03:36:53.617Z,21.90
2023-04-07T03:39:22.944Z,25.17
2023-04-07T03:41:54.610Z,26.05
2023-04-07T03:44:23.025Z,24.92
2023-04-07T03:46:53.777Z,29.38
2023-04-07T03:49:24.481Z,24.20
2023-04-07T03:51:53.584Z,21.58
2023-04-07T03:54:21.932Z,21.10
2023-04-07T03:56:50.817Z,25.98
2023-04-07T03:59:23.514Z,26.83
2023-04-07T04:02:00.282Z,24.08
2023-04-07T04:04:29.879Z,27.92
2023-04-07T04:06:58.145Z,27.33
2023-04-07T04:09:45.011Z,27.35
2023-04-07T04:12:14.149Z,25.10
2023-04-07T04:14:55.152Z,22.88
2023-04-07T04:17:23.702Z,26.92
2023-04-07T04:19:52.029Z,27.98
2023-04-07T04:22:26.313Z,26.10
2023-04-07T04:24:59.112Z,20.73
2023-04-07T04:27:29.466Z,23.42
2023-04-07T04:30:05.780Z,27.83
2023-04-07T04:32:41.723Z,25.80
2023-04-07T04:35:11.001Z,27.70
2023-04-07T04:37:48.735Z,28.58
2023-04-07T04:40:17.459Z,31.35
2023-04-07T04:42:49.226Z,33.83
2023-04-07T04:45:18.194Z,31.13
2023-04-07T04:47:49.217Z,32.22
2023-04-07T04:50:18.445Z,27.27
2023-04-07T04:52:48.134Z,24.30
2023-04-07T04:55:23.232Z,28.55
2023-04-07T04:57:53.383Z,33.95
2023-04-07T05:00:30.178Z,27.17
2023-04-07T05:03:03.722Z,29.52
2023-04-07T05:05:36.239Z,24.50
2023-04-07T05:08:05.383Z,26.90
2023-04-07T05:10:40.393Z,24.73
2023-04-07T05:13:13.179Z,21.98
2023-04-07T05:15:42.645Z,23.73
2023-04-07T05:18:13.384Z,25.35
2023-04-07T05:20:44.106Z,25.63
2023-04-07T05:23:13.812Z,26.30
2023-04-07T05:25:43.120Z,24.90
2023-04-07T05:28:11.580Z,23.67
2023-04-07T05:30:39.875Z,24.60
2023-04-07T05:33:08.507Z,32.67
2023-04-07T05:35:46.265Z,30.85
2023-04-07T05:38:16.737Z,30.10
2023-04-07T05:40:45.664Z,25.08
2023-04-07T05:43:20.418Z,26.30
2023-04-07T05:45:48.948Z,26.08
2023-04-07T05:48:17.423Z,29.25
2023-04-07T05:50:48.408Z,32.03
2023-04-07T05:53:19.322Z,26.90
2023-04-07T05:55:48.338Z,25.55
2023-04-07T05:58:26.253Z,29.52
2023-04-07T06:00:56.418Z,30.40
2023-04-07T06:03:24.763Z,32.10
2023-04-07T06:05:59.989Z,34.60
2023-04-07T06:08:28.349Z,27.05
2023-04-07T06:10:57.703Z,33.72
2023-04-07T06:13:26.044Z,27.33
2023-04-07T06:15:56.866Z,27.77
2023-04-07T06:18:25.781Z,23.80
2023-04-07T06:20:54.040Z,30.13
2023-04-07T06:23:22.281Z,27.48
2023-04-07T06:25:53.162Z,27.58
2023-04-07T06:28:21.834Z,24.95
2023-04-07T06:30:50.582Z,24.77
2023-04-07T06:33:19.673Z,27.50
2023-04-07T06:35:47.995Z,28.73
2023-04-07T06:38:16.222Z,31.58
2023-04-07T06:40:44.436Z,24.27
2023-04-07T06:43:12.676Z,24.67
2023-04-07T06:45:56.256Z,26.30
2023-04-07T06:48:24.589Z,29.38
2023-04-07T06:50:53.050Z,27.77
2023-04-07T06:53:21.285Z,33.03
2023-04-07T06:55:49.554Z,31.58
2023-04-07T06:58:17.754Z,29.27
2023-04-07T07:00:45.965Z,25.10
2023-04-07T07:03:14.361Z,23.83
2023-04-07T07:05:42.750Z,29.05
2023-04-07T07:08:11.046Z,35.45
2023-04-07T07:10:39.286Z,25.73
2023-04-07T07:13:07.497Z,25.63
2023-04-07T07:15:35.759Z,27.45
2023-04-07T07:18:04.380Z,24.77
2023-04-07T07:20:32.650Z,27.95
2023-04-07T07:23:00.907Z,23.67
2023-04-07T07:25:29.468Z,27.75
2023-04-07T07:27:57.773Z,27.15
2023-04-07T07:30:26.494Z,25.77
2023-04-07T07:32:56.393Z,26.88
2023-04-07T07:35:25.449Z,25.58
2023-04-07T07:37:53.873Z,24.65
2023-04-07T07:40:22.279Z,27.70
2023-04-07T07:42:50.506Z,26.05
2023-04-07T07:45:19.747Z,29.05
2023-04-07T07:47:48.104Z,25.45
2023-04-07T07:50:16.482Z,29.88
2023-04-07T07:52:44.819Z,25.92
2023-04-07T07:55:13.103Z,32.67
2023-04-07T07:57:41.421Z,25.15
2023-04-07T08:00:10.491Z,31.90
2023-04-07T08:02:44.575Z,28.60
2023-04-07T08:05:13.058Z,27.40
2023-04-07T08:07:43.179Z,28.55
2023-04-07T08:10:11.466Z,29.33
2023-04-07T08:12:39.776Z,25.10
2023-04-07T08:15:10.385Z,25.27
2023-04-07T08:17:39.048Z,25.65
2023-04-07T08:20:08.073Z,24.02
2023-04-07T08:22:36.384Z,23.55
2023-04-07T08:25:04.898Z,30.42
2023-04-07T08:27:33.164Z,26.13
2023-04-07T08:30:03.094Z,27.75
2023-04-07T08:32:36.340Z,25.90
2023-04-07T08:35:04.968Z,32.88
2023-04-07T08:37:34.155Z,27.10
2023-04-07T08:40:03.928Z,27.25
2023-04-07T08:42:34.747Z,31.20
2023-04-07T08:45:07.499Z,31.65
2023-04-07T08:47:37.725Z,32.67
2023-04-07T08:50:09.443Z,26.77
2023-04-07T08:52:57.643Z,29.75
2023-04-07T08:55:26.409Z,32.42
2023-04-07T08:57:55.626Z,29.38
2023-04-07T09:00:24.439Z,27.60
2023-04-07T09:02:53.717Z,32.67
2023-04-07T09:05:22.410Z,28.70
2023-04-07T09:07:50.740Z,29.30
2023-04-07T09:10:19.676Z,28.98
2023-04-07T09:12:48.325Z,30.88
2023-04-07T09:15:16.599Z,37.75
2023-04-07T09:17:45.001Z,35.30
2023-04-07T09:20:13.311Z,35.53
2023-04-07T09:22:43.412Z,29.92
2023-04-07T09:25:19.894Z,32.83
2023-04-07T09:28:02.161Z,31.40
2023-04-07T09:30:32.687Z,34.22
2023-04-07T09:33:01.918Z,35.08
2023-04-07T09:35:30.679Z,33.83
2023-04-07T09:38:06.424Z,35.65
2023-04-07T09:40:35.451Z,33.50
2023-04-07T09:43:05.354Z,34.88
2023-04-07T09:45:36.689Z,36.58
2023-04-07T09:48:18.761Z,31.10
2023-04-07T09:50:51.989Z,34.60
2023-04-07T09:53:20.375Z,33.38
2023-04-07T09:55:49.760Z,36.65
2023-04-07T09:58:18.685Z,34.00
2023-04-07T10:00:48.160Z,34.33
2023-04-07T10:03:16.881Z,32.85
2023-04-07T10:05:45.705Z,32.67
2023-04-07T10:08:14.385Z,32.90
2023-04-07T10:10:45.913Z,32.65
2023-04-07T10:13:14.451Z,37.65
2023-04-07T10:15:43.249Z,39.28
2023-04-07T10:18:11.953Z,32.47
2023-04-07T10:20:44.309Z,30.52
2023-04-07T10:23:27.231Z,30.75
2023-04-07T10:25:59.236Z,37.55
2023-04-07T10:28:28.994Z,31.15
2023-04-07T10:30:58.179Z,37.45
2023-04-07T10:33:45.538Z,34.05
2023-04-07T10:36:13.918Z,33.45
2023-04-07T10:38:42.762Z,38.42
2023-04-07T10:41:34.794Z,36.92
2023-04-07T10:44:07.155Z,37.13
2023-04-07T10:46:48.431Z,36.35
2023-04-07T10:49:18.790Z,35.88
2023-04-07T10:52:13.584Z,37.85
2023-04-07T10:54:42.956Z,34.95
2023-04-07T10:57:15.867Z,31.80
2023-04-07T11:00:10.605Z,33.60
2023-04-07T11:02:42.745Z,34.42
2023-04-07T11:05:22.791Z,35.80
2023-04-07T11:07:55.301Z,34.80
2023-04-07T11:10:23.926Z,41.43
2023-04-07T11:13:08.645Z,33.13
2023-04-07T11:15:40.280Z,37.03
2023-04-07T11:18:20.597Z,31.70
2023-04-07T11:20:59.197Z,35.03
2023-04-07T11:23:27.652Z,35.90
2023-04-07T11:26:02.900Z,42.40
2023-04-07T11:28:32.331Z,32.50
2023-04-07T11:31:00.738Z,34.42
2023-04-07T11:33:31.464Z,30.73
2023-04-07T11:36:01.963Z,35.58
2023-04-07T11:38:38.582Z,33.47
2023-04-07T11:41:15.481Z,33.08
2023-04-07T11:43:43.824Z,37.53
2023-04-07T11:46:16.754Z,32.47
2023-04-07T11:48:47.398Z,37.50
2023-04-07T11:51:24.076Z,33.60
2023-04-07T11:53:57.006Z,37.65
2023-04-07T11:56:25.514Z,31.75
2023-04-07T11:58:55.229Z,42.28
2023-04-07T12:01:39.027Z,32.40
2023-04-07T12:04:07.542Z,33.97
2023-04-07T12:06:41.551Z,41.45
2023-04-07T12:09:27.336Z,37.10
2023-04-07T12:11:57.311Z,34.90
2023-04-07T12:14:28.786Z,38.38
2023-04-07T12:16:58.329Z,37.08
2023-04-07T12:19:28.333Z,39.35
2023-04-07T12:21:57.121Z,39.42
2023-04-07T12:24:25.442Z,42.05
2023-04-07T12:26:53.700Z,38.85
2023-04-07T12:29:21.979Z,36.92
2023-04-07T12:31:51.341Z,40.63
2023-04-07T12:34:20.124Z,36.97
2023-04-07T12:36:48.639Z,40.67
2023-04-07T12:39:17.324Z,37.72
2023-04-07T12:41:49.296Z,34.22
2023-04-07T12:44:17.573Z,41.33
2023-04-07T12:46:45.969Z,37.25
2023-04-07T12:49:14.248Z,43.10
2023-04-07T12:51:42.604Z,40.00
2023-04-07T12:54:10.941Z,39.15
2023-04-07T12:56:40.847Z,40.15
2023-04-07T12:59:09.733Z,33.88
2023-04-07T13:01:38.153Z,38.30
2023-04-07T13:04:06.915Z,39.30
2023-04-07T13:06:35.177Z,40.22
2023-04-07T13:09:03.498Z,38.47
2023-04-07T13:11:31.794Z,41.05
2023-04-07T13:14:01.376Z,37.58
2023-04-07T13:16:30.339Z,38.83
2023-04-07T13:18:58.600Z,35.97
2023-04-07T13:21:45.251Z,37.50
2023-04-07T13:24:14.849Z,39.05
2023-04-07T13:26:46.019Z,39.78
2023-04-07T13:29:14.262Z,40.67
2023-04-07T13:31:42.531Z,39.20
2023-04-07T13:34:10.897Z,36.65
2023-04-07T13:36:39.382Z,40.08
2023-04-07T13:39:09.045Z,32.88
2023-04-07T13:41:37.442Z,36.55
2023-04-07T13:44:05.805Z,37.15
2023-04-07T13:46:34.205Z,37.67
2023-04-07T13:49:03.453Z,35.83
2023-04-07T13:51:32.478Z,39.25
2023-04-07T13:54:01.045Z,36.22
2023-04-07T13:56:29.341Z,39.90
2023-04-07T13:58:58.750Z,44.28
2023-04-07T14:01:27.709Z,40.22
2023-04-07T14:03:58.614Z,45.58
2023-04-07T14:06:29.389Z,43.30
2023-04-07T14:08:57.967Z,36.35
2023-04-07T14:11:26.448Z,35.63
2023-04-07T14:13:58.832Z,41.95
2023-04-07T14:16:28.052Z,35.97
2023-04-07T14:18:56.287Z,40.63
2023-04-07T14:21:24.993Z,40.80
2023-04-07T14:23:53.822Z,39.53
2023-04-07T14:26:22.421Z,40.78
2023-04-07T14:28:50.742Z,38.00
2023-04-07T14:31:19.042Z,42.33
2023-04-07T14:33:47.608Z,36.55
2023-04-07T14:36:19.375Z,43.25
2023-04-07T14:38:47.849Z,42.65
2023-04-07T14:41:16.732Z,45.35
2023-04-07T14:43:44.959Z,41.08
2023-04-07T14:46:14.977Z,38.50
2023-04-07T14:48:46.045Z,45.20
2023-04-07T14:51:14.429Z,44.03
2023-04-07T14:53:43.526Z,43.10
2023-04-07T14:56:12.641Z,44.08
2023-04-07T14:58:41.107Z,40.63
2023-04-07T15:01:09.440Z,40.25
2023-04-07T15:03:37.996Z,37.60
2023-04-07T15:06:13.885Z,40.15
2023-04-07T15:08:42.189Z,42.65
2023-04-07T15:11:10.665Z,41.85
2023-04-07T15:13:38.928Z,41.58
2023-04-07T15:16:13.419Z,46.45
2023-04-07T15:18:44.530Z,46.70
2023-04-07T15:21:13.771Z,39.35
2023-04-07T15:23:42.214Z,37.42
2023-04-07T15:26:11.441Z,39.10
2023-04-07T15:28:39.806Z,41.13
2023-04-07T15:31:09.024Z,41.40
2023-04-07T15:33:38.627Z,40.60
2023-04-07T15:36:09.834Z,43.40
2023-04-07T15:38:39.317Z,41.13
2023-04-07T15:41:07.895Z,38.53
2023-04-07T15:43:37.584Z,40.13
2023-04-07T15:46:05.947Z,39.40
2023-04-07T15:48:34.196Z,36.65
2023-04-07T15:51:02.630Z,42.30
2023-04-07T15:53:31.121Z,40.05
2023-04-07T15:55:59.579Z,28.98
2023-04-07T15:58:27.825Z,19.83
2023-04-07T16:00:56.203Z,15.25
2023-04-07T16:03:24.908Z,16.08
2023-04-07T16:05:53.704Z,19.25
2023-04-07T16:08:21.975Z,27.67
2023-04-07T16:10:50.466Z,24.52
2023-04-07T16:13:18.688Z,31.17
2023-04-07T16:15:46.910Z,39.55
2023-04-07T16:18:15.481Z,36.03
2023-04-07T16:20:43.911Z,39.17
2023-04-07T16:23:12.627Z,34.22
2023-04-07T16:25:40.889Z,30.92
2023-04-07T16:28:09.237Z,27.77
2023-04-07T16:30:37.544Z,31.50
2023-04-07T16:33:05.944Z,26.77
2023-04-07T16:35:34.483Z,28.83
2023-04-07T16:38:05.941Z,77.38
2023-04-07T16:40:34.364Z,63.35
2023-04-07T16:43:02.675Z,38.40
2023-04-07T16:45:30.970Z,31.90
2023-04-07T16:47:59.824Z,35.28
2023-04-07T16:50:28.118Z,28.42
2023-04-07T16:52:57.692Z,32.28
2023-04-07T16:55:26.099Z,30.27
2023-04-07T16:57:54.387Z,32.13
2023-04-07T17:00:22.779Z,28.63
2023-04-07T17:02:51.216Z,27.98
2023-04-07T17:05:19.605Z,31.95
2023-04-07T17:07:48.348Z,32.85
2023-04-07T17:10:16.585Z,32.92
2023-04-07T17:12:45.484Z,35.15
2023-04-07T17:15:13.843Z,35.35
2023-04-07T17:17:42.105Z,35.38
2023-04-07T17:20:10.994Z,33.22
2023-04-07T17:22:39.326Z,27.23
2023-04-07T17:25:08.123Z,34.13
2023-04-07T17:27:36.402Z,37.72
2023-04-07T17:30:05.352Z,39.92
2023-04-07T17:32:33.700Z,38.67
2023-04-07T17:35:02.092Z,34.83
2023-04-07T17:37:30.932Z,42.70
2023-04-07T17:40:00.297Z,49.80
2023-04-07T17:42:28.874Z,44.17
2023-04-07T17:45:00.177Z,46.55
2023-04-07T17:47:28.614Z,40.05
2023-04-07T17:49:56.945Z,52.10
2023-04-07T17:52:25.359Z,40.50
2023-04-07T17:54:53.818Z,47.20
2023-04-07T17:57:22.195Z,38.20
2023-04-07T17:59:51.010Z,42.03
2023-04-07T18:02:19.449Z,40.58
2023-04-07T18:04:47.770Z,42.67
2023-04-07T18:07:16.189Z,40.60
2023-04-07T18:09:45.039Z,53.67
2023-04-07T18:12:13.522Z,46.78
2023-04-07T18:14:41.792Z,45.25
2023-04-07T18:17:10.007Z,45.92
2023-04-07T18:19:38.223Z,49.90
2023-04-07T18:22:06.577Z,51.22
2023-04-07T18:24:34.798Z,51.03
2023-04-07T18:27:03.997Z,46.33
2023-04-07T18:29:32.380Z,49.70
2023-04-07T18:32:03.087Z,46.15
2023-04-07T18:34:31.496Z,52.90
2023-04-07T18:36:59.729Z,61.50
2023-04-07T18:39:28.365Z,52.03
2023-04-07T18:41:57.844Z,51.22
2023-04-07T18:44:28.491Z,54.58
2023-04-07T18:46:56.831Z,57.50
2023-04-07T18:49:27.197Z,56.10
2023-04-07T18:51:56.895Z,52.85
2023-04-07T18:54:27.144Z,51.67
2023-04-07T18:56:56.322Z,52.60
2023-04-07T18:59:26.542Z,54.72
2023-04-07T19:01:55.741Z,64.32
2023-04-07T19:04:25.079Z,62.58
2023-04-07T19:06:53.904Z,67.93
2023-04-07T19:09:22.294Z,66.53
2023-04-07T19:11:51.372Z,59.05
2023-04-07T19:14:19.674Z,58.47
2023-04-07T19:16:48.180Z,62.67
2023-04-07T19:19:17.459Z,56.50
2023-04-07T19:21:45.914Z,56.17
2023-04-07T19:24:14.173Z,55.42
2023-04-07T19:26:43.000Z,61.95
2023-04-07T19:29:12.539Z,73.25
2023-04-07T19:31:40.958Z,63.35
2023-04-07T19:34:09.274Z,55.75
2023-04-07T19:36:37.515Z,57.35
2023-04-07T19:39:06.001Z,56.25
2023-04-07T19:41:34.231Z,59.53
2023-04-07T19:44:02.520Z,60.00
2023-04-07T19:46:33.294Z,55.22
2023-04-07T19:49:01.593Z,59.45
2023-04-07T19:51:29.798Z,53.13
2023-04-07T19:53:58.053Z,57.22
2023-04-07T19:56:26.382Z,60.70
2023-04-07T19:58:54.606Z,53.95
2023-04-07T20:01:22.923Z,56.47
2023-04-07T20:06:39.086Z,56.63
2023-04-07T20:09:07.478Z,61.13
2023-04-07T20:11:35.698Z,52.75
2023-04-07T20:14:03.913Z,61.45
2023-04-07T20:16:35.321Z,52.00
2023-04-07T20:19:04.591Z,56.72
2023-04-07T20:21:32.977Z,52.22
2023-04-07T20:24:01.354Z,56.45
2023-04-07T20:26:29.629Z,51.30
2023-04-07T20:28:57.868Z,49.65
2023-04-07T20:31:26.245Z,45.17
2023-04-07T20:33:54.531Z,50.50
2023-04-07T20:36:22.782Z,53.10
2023-04-07T20:38:51.185Z,50.03
2023-04-07T20:41:19.763Z,47.05
2023-04-07T20:43:50.966Z,49.88
2023-04-07T20:46:19.480Z,54.33
2023-04-07T20:48:48.018Z,59.05
2023-04-07T20:51:16.751Z,50.40
2023-04-07T20:53:45.007Z,42.22
2023-04-07T20:56:14.205Z,40.38
2023-04-07T20:58:42.542Z,39.47
2023-04-07T21:01:10.960Z,36.95
2023-04-07T21:03:39.303Z,34.70
2023-04-07T21:06:07.556Z,38.22
2023-04-07T21:08:35.775Z,35.42
2023-04-07T21:11:04.142Z,33.45
2023-04-07T21:13:32.417Z,32.90
2023-04-07T21:16:02.824Z,36.55
2023-04-07T21:18:31.020Z,38.53
2023-04-07T21:21:02.143Z,34.60
2023-04-07T21:23:31.937Z,37.20
2023-04-07T21:26:03.969Z,33.15
2023-04-07T21:28:32.197Z,32.65
2023-04-07T21:31:01.537Z,34.45
2023-04-07T21:33:29.923Z,39.15
2023-04-07T21:35:59.768Z,35.28
2023-04-07T21:38:28.392Z,34.35
2023-04-07T21:40:57.632Z,38.33
2023-04-07T21:43:28.870Z,34.72
2023-04-07T21:45:57.231Z,33.85
2023-04-07T21:48:25.626Z,31.35
2023-04-07T21:50:54.111Z,39.42
2023-04-07T21:53:22.382Z,40.60
2023-04-07T21:55:50.649Z,38.67
2023-04-07T21:58:19.009Z,35.40
2023-04-07T22:00:50.460Z,41.35
2023-04-07T22:03:19.500Z,35.88
2023-04-07T22:05:47.968Z,33.95
2023-04-07T22:08:16.791Z,38.10
2023-04-07T22:10:45.128Z,35.35
2023-04-07T22:13:13.452Z,34.05
2023-04-07T22:15:41.722Z,33.35
2023-04-07T22:18:10.538Z,37.75
2023-04-07T22:20:39.517Z,37.17
2023-04-07T22:23:07.971Z,37.45
2023-04-07T22:25:36.264Z,39.55
2023-04-07T22:28:04.500Z,41.65
2023-04-07T22:30:32.860Z,41.58
2023-04-07T22:33:01.102Z,33.17
2023-04-07T22:35:29.453Z,35.20
2023-04-07T22:37:57.728Z,36.00
2023-04-07T22:40:26.159Z,31.98
2023-04-07T22:42:54.467Z,37.17
2023-04-07T22:45:22.718Z,35.53
2023-04-07T22:47:51.642Z,32.22
2023-04-07T22:50:19.896Z,35.10
2023-04-07T22:52:48.152Z,41.25
2023-04-07T22:55:16.492Z,42.42
2023-04-07T22:57:44.859Z,37.63
2023-04-07T23:00:13.923Z,37.70
2023-04-07T23:02:42.474Z,37.35
2023-04-07T23:05:10.798Z,39.42
2023-04-07T23:07:39.093Z,42.33
2023-04-07T23:10:08.296Z,40.90
2023-04-07T23:12:37.931Z,37.15
2023-04-07T23:15:06.716Z,37.60
2023-04-07T23:17:35.756Z,37.65
2023-04-07T23:20:04.133Z,37.97
2023-04-07T23:22:32.397Z,37.67
2023-04-07T23:25:01.145Z,43.20
2023-04-07T23:27:29.462Z,47.95
2023-04-07T23:29:58.295Z,41.70
2023-04-07T23:32:26.636Z,40.25
2023-04-07T23:34:54.866Z,42.92
2023-04-07T23:37:23.133Z,38.47
2023-04-07T23:39:51.784Z,44.15
2023-04-07T23:42:20.022Z,44.40
2023-04-07T23:44:48.332Z,45.60
2023-04-07T23:47:16.578Z,40.67
2023-04-07T23:49:44.809Z,45.53
2023-04-07T23:52:13.093Z,41.47
2023-04-07T23:54:41.639Z,42.47
2023-04-07T23:57:10.000Z,42.90
2023-04-07T23:59:38.192Z,41.13
